Airfield :
LOGIN :

Register | Disclaimer

   EN    FR    IT 

 










Legend :    VFR   Marginal VFR   IFR   Intensive IFR   Very Intensive IFR
Visi :
Ceiling :
>= 8 km
>= 3000ft
5 to 8 km
1000 to 3000 ft
1500m to 5 km
500 to 1000 ft
800 to 1500m
200 to 500 ft
< 800m
< 200 ft
Symbols :   Thunderstorms  Fog  Heavy snow  Heavy precipitations  Wind > 20 kt
SIGMETs :     Misc.  Thunderstorms  Icing  Turbulence  Mountain Waves  Volcanic Ashes






- Airport Elevation : 1910 ft
- IATA code : RDZ


LFCR - Rodez

CURRENT METAR :
  • 092200Z AUTO 15002KT CAVOK 23/14 Q1016 NOSIG

EXPIRED METARs :
  • 092130Z AUTO VRB02KT CAVOK 24/14 Q1016 NOSIG
  • 092100Z AUTO 09003KT CAVOK 24/14 Q1016 NOSIG
  • 092030Z AUTO 09004KT CAVOK 26/14 Q1016 NOSIG
  • 092000Z AUTO 13006KT CAVOK 26/15 Q1016 TEMPO VRB20G30KT TSRA FEW080CB BKN120
  • 091930Z AUTO 11010KT 9999 ///CB 26/15 Q1016 TEMPO VRB20G30KT TSRA BECMG NSC

TAF TAF LFCR
Valid from the 09 at 18:00 until the 10 at 18:00 UTC


091700Z 0918/1018 16008KT 9999 FEW080CB BKN120
PROB30
TEMPO 0918/0921 VRB20G30KT TSRA
BECMG 0921/0923 CAVOK
BECMG 1013/1015 FEW060CB BKN100
PROB30
TEMPO 1014/1018 14020G30KT TSRA



MET'MAP, your aeronautical weather chart ! - Copyright ORBIFLY December 2007 - Disclaimer

ORBIFLY MET'MAP TEAM :

Programming & Development : Alexandra Zaïnal
Concept & original design : Baudouin d'Aumeries
Assistance for programming : Marc-Olivier Méhu
Technical & hardware support : Manuel Goepfert

Contact : metmap@orbifly.com




SOURCES & CREDITS :

   NOAA